Time;durP1;ratioP1;P1;durP2;ratioP2;P2;SDS_P1;SDS_P2;PMS_P1;PMS_P2;Temp;Humidity;BMP_temperature;BMP_pressure;BME280_temperature;BME280_humidity;BME280_pressure;Samples;Min_cycle;Max_cycle;Signal;HPM_P1;HPM_P2
2023/01/11 00:01:34;;;;;;;;;;;;;;;9.20;100.00;100492.38;5139570;27;19907;-90
2023/01/11 00:04:01;;;;;;;;;;;;;;;9.21;100.00;100487.09;5140866;27;20217;-90
2023/01/11 00:06:27;;;;;;;;;;;;;;;9.21;100.00;100487.09;5144019;27;19915;-90
2023/01/11 00:08:55;;;;;;;;;;;;;;;9.25;100.00;100494.81;5161858;27;20223;-90
2023/01/11 00:11:20;;;;;;;;;;;;;;;9.26;100.00;100483.41;5127095;27;20199;-90
2023/01/11 00:13:45;;;;;;;;;;;;;;;9.27;100.00;100514.72;5143779;27;20108;-90
2023/01/11 00:16:12;;;;;;;;;;;;;;;9.29;100.00;100478.91;5162745;27;19933;-90
2023/01/11 00:18:39;;;;;;;;;;;;;;;9.30;100.00;100483.25;5143776;27;19949;-91
2023/01/11 00:21:05;;;;;;;;;;;;;;;9.30;100.00;100483.25;5123788;27;20111;-90
2023/01/11 00:23:32;;;;;;;;;;;;;;;9.31;100.00;100487.53;5142147;27;19907;-90
2023/01/11 00:25:57;;;;;;;;;;;;;;;9.32;100.00;100486.66;5124090;27;19908;-90
2023/01/11 00:28:24;;;;;;;;;;;;;;;9.33;100.00;100480.53;5106502;27;19915;-90
2023/01/11 00:30:50;;;;;;;;;;;;;;;9.35;100.00;100490.88;5122472;27;19923;-90
2023/01/11 00:33:17;;;;;;;;;;;;;;;9.36;100.00;100496.06;5123916;27;20255;-90
2023/01/11 00:35:44;;;;;;;;;;;;;;;9.37;100.00;100497.75;5141457;27;19915;-90
2023/01/11 00:38:42;;;;;;;;;;;;;;;9.38;100.00;100475.94;5124052;27;20174;-90
2023/01/11 00:40:54;;;;;;;;;;;;;;;9.40;100.00;100489.81;5126167;27;19928;-91
2023/01/11 00:48:48;;;;;;;;;;;;;;;9.43;100.00;100486.19;5126369;27;19918;-91
2023/01/11 00:51:14;;;;;;;;;;;;;;;9.45;100.00;100462.63;5122971;27;20214;-90
2023/01/11 00:53:40;;;;;;;;;;;;;;;9.46;100.00;100483.47;5106401;27;19931;-91
2023/01/11 00:56:05;;;;;;;;;;;;;;;9.46;100.00;100475.63;5106460;27;20207;-90
2023/01/11 00:58:31;;;;;;;;;;;;;;;9.49;100.00;100472.03;5106039;27;19920;-91
2023/01/11 01:00:57;;;;;;;;;;;;;;;9.49;100.00;100480.72;5113694;27;19911;-91
2023/01/11 01:03:23;;;;;;;;;;;;;;;9.51;100.00;100484.09;5105987;27;20199;-91
2023/01/11 01:05:54;;;;;;;;;;;;;;;9.53;100.00;100484.03;5105464;27;19960;-90
2023/01/11 01:08:20;;;;;;;;;;;;;;;9.53;100.00;100476.19;5122100;27;19932;-91
2023/01/11 01:10:46;;;;;;;;;;;;;;;9.53;100.00;100482.31;5140348;27;20133;-90
2023/01/11 01:15:57;;;;;;;;;;;;;;;9.55;100.00;100480.47;5124921;27;19985;-91
2023/01/11 01:18:23;;;;;;;;;;;;;;;9.56;100.00;100484.78;5122629;27;19912;-90
2023/01/11 01:20:49;;;;;;;;;;;;;;;9.58;100.00;100493.38;5105559;27;19911;-91
2023/01/11 01:23:14;;;;;;;;;;;;;;;9.58;100.00;100489.94;5105460;27;19915;-90
2023/01/11 01:25:39;;;;;;;;;;;;;;;9.58;100.00;100488.16;5105211;27;19971;-91
2023/01/11 01:28:05;;;;;;;;;;;;;;;9.59;100.00;100489.03;5122617;27;19911;-91
2023/01/11 01:30:30;;;;;;;;;;;;;;;9.61;100.00;100502.88;5105554;27;19912;-91
2023/01/11 01:32:55;;;;;;;;;;;;;;;9.60;100.00;100499.44;5122462;27;19927;-91
2023/01/11 01:35:21;;;;;;;;;;;;;;;9.61;100.00;100498.50;5122642;27;20111;-91
2023/01/11 01:37:46;;;;;;;;;;;;;;;9.64;100.00;100515.84;5105172;27;19919;-91
2023/01/11 01:40:11;;;;;;;;;;;;;;;9.65;100.00;100512.28;5121706;27;20253;-91
2023/01/11 01:42:37;;;;;;;;;;;;;;;9.66;100.00;100511.41;5142519;27;19956;-90
2023/01/11 01:45:22;;;;;;;;;;;;;;;9.67;100.00;100515.69;5142983;27;19958;-91
2023/01/11 01:47:51;;;;;;;;;;;;;;;9.68;100.00;100525.25;5160005;27;19915;-91
2023/01/11 01:50:19;;;;;;;;;;;;;;;9.69;100.00;100520.88;5160279;27;20191;-91
2023/01/11 01:52:47;;;;;;;;;;;;;;;9.69;100.00;100524.31;5160665;27;20161;-91
2023/01/11 01:55:17;;;;;;;;;;;;;;;9.70;100.00;100526.03;5160340;27;20214;-91
2023/01/11 01:57:43;;;;;;;;;;;;;;;9.72;100.00;100536.44;5160364;27;19922;-91
2023/01/11 02:00:09;;;;;;;;;;;;;;;9.72;100.00;100529.44;5159988;27;19918;-91
2023/01/11 02:02:38;;;;;;;;;;;;;;;9.75;100.00;100523.22;5161168;27;20107;-91
2023/01/11 02:05:08;;;;;;;;;;;;;;;9.76;100.00;100523.16;5160981;27;19915;-91
2023/01/11 02:07:37;;;;;;;;;;;;;;;9.77;100.00;100532.72;5159096;27;19914;-91
2023/01/11 02:10:07;;;;;;;;;;;;;;;9.77;100.00;100537.94;5161305;27;19974;-91
2023/01/11 02:12:41;;;;;;;;;;;;;;;9.79;100.00;100530.88;5160431;27;19919;-91
2023/01/11 02:15:10;;;;;;;;;;;;;;;9.78;100.00;100531.78;5160970;27;19915;-91
2023/01/11 02:17:38;;;;;;;;;;;;;;;9.80;100.00;100535.19;5159709;27;19915;-90
2023/01/11 02:20:17;;;;;;;;;;;;;;;9.84;100.00;100543.78;5161043;27;19937;-91
2023/01/11 02:23:03;;;;;;;;;;;;;;;9.87;100.00;100529.69;5160534;27;20324;-91
2023/01/11 02:25:48;;;;;;;;;;;;;;;9.89;100.00;100523.47;5160835;27;20210;-91
2023/01/11 02:28:44;;;;;;;;;;;;;;;9.92;100.00;100533.81;5160542;27;19915;-91
2023/01/11 02:31:25;;;;;;;;;;;;;;;9.95;100.00;100532.81;5148890;27;19914;-91
2023/01/11 02:33:58;;;;;;;;;;;;;;;9.95;100.00;100531.06;5160760;27;19939;-91
2023/01/11 02:36:33;;;;;;;;;;;;;;;9.97;100.00;100534.47;5160364;27;19929;-91
2023/01/11 02:39:06;;;;;;;;;;;;;;;10.02;100.00;100541.25;5159739;27;19929;-91
2023/01/11 02:47:24;;;;;;;;;;;;;;;10.12;100.00;100538.19;5160472;27;19922;-91
2023/01/11 02:49:54;;;;;;;;;;;;;;;10.14;100.00;100533.72;5159829;27;19922;-91
2023/01/11 02:52:31;;;;;;;;;;;;;;;10.17;100.00;100536.22;5159666;27;19975;-91
2023/01/11 02:55:08;;;;;;;;;;;;;;;10.20;100.00;100545.69;5159276;27;19915;-91
2023/01/11 02:57:45;;;;;;;;;;;;;;;10.20;100.00;100558.78;5159345;27;19931;-91
2023/01/11 03:00:22;;;;;;;;;;;;;;;10.23;100.00;100557.81;5142342;27;20132;-91
2023/01/11 03:03:09;;;;;;;;;;;;;;;10.23;100.00;100544.72;5159532;27;19915;-91
2023/01/11 03:05:42;;;;;;;;;;;;;;;10.25;100.00;100556.81;5159017;27;20388;-91
2023/01/11 03:08:30;;;;;;;;;;;;;;;10.26;100.00;100547.19;5159077;27;20256;-91
2023/01/11 03:11:08;;;;;;;;;;;;;;;10.26;100.00;100558.53;5159939;27;19915;-91
2023/01/11 03:14:00;;;;;;;;;;;;;;;10.28;100.00;100571.56;5157833;27;20198;-91
2023/01/11 03:16:51;;;;;;;;;;;;;;;10.28;100.00;100590.72;5126262;27;20007;-91
2023/01/11 03:19:40;;;;;;;;;;;;;;;10.28;100.00;100561.09;5135115;27;19914;-91
2023/01/11 03:22:14;;;;;;;;;;;;;;;10.28;100.00;100561.94;5159038;27;19907;-91
2023/01/11 03:24:46;;;;;;;;;;;;;;;10.28;100.00;100558.47;5158087;27;19928;-91
2023/01/11 03:27:22;;;;;;;;;;;;;;;10.28;100.00;100568.94;5158024;27;19939;-91
2023/01/11 03:29:57;;;;;;;;;;;;;;;10.28;100.00;100564.53;5159717;27;19907;-91
2023/01/11 03:32:27;;;;;;;;;;;;;;;10.28;100.00;100576.78;5158053;27;19918;-91
2023/01/11 03:34:52;;;;;;;;;;;;;;;10.28;100.00;100584.66;5158031;27;19946;-91
2023/01/11 03:37:31;;;;;;;;;;;;;;;10.29;100.00;100581.09;5157769;27;19922;-91
2023/01/11 03:40:08;;;;;;;;;;;;;;;10.28;100.00;100572.41;5157448;27;19957;-91
2023/01/11 03:43:09;;;;;;;;;;;;;;;10.28;100.00;100590.72;5158266;27;20206;-91
2023/01/11 03:45:30;;;;;;;;;;;;;;;10.28;100.00;100585.47;5159371;27;19926;-91
2023/01/11 03:48:01;;;;;;;;;;;;;;;10.28;100.00;100595.13;5158221;27;20304;-91
2023/01/11 03:50:31;;;;;;;;;;;;;;;10.27;100.00;100585.53;5158837;27;19927;-92
2023/01/11 03:52:58;;;;;;;;;;;;;;;10.28;100.00;100589.88;5140707;27;19953;-92
2023/01/11 03:55:25;;;;;;;;;;;;;;;10.27;100.00;100609.94;5140900;27;19907;-92
2023/01/11 03:57:52;;;;;;;;;;;;;;;10.28;100.00;100603.81;5140694;27;19919;-92
2023/01/11 04:00:21;;;;;;;;;;;;;;;10.30;100.00;100614.22;5158555;27;19926;-91
2023/01/11 04:02:48;;;;;;;;;;;;;;;10.28;100.00;100621.28;5159256;27;20229;-92
2023/01/11 04:05:19;;;;;;;;;;;;;;;10.28;100.00;100627.38;5158943;27;20145;-91
2023/01/11 04:07:46;;;;;;;;;;;;;;;10.28;100.00;100643.06;5140248;27;19918;-91
2023/01/11 04:10:13;;;;;;;;;;;;;;;10.29;100.00;100641.28;5141153;27;20095;-91
2023/01/11 04:12:41;;;;;;;;;;;;;;;10.28;100.00;100639.59;5157853;27;19926;-92
2023/01/11 04:15:15;;;;;;;;;;;;;;;10.28;100.00;100637.00;5159453;27;20258;-92
2023/01/11 04:17:43;;;;;;;;;;;;;;;10.27;100.00;100645.75;5157484;27;19926;-92
2023/01/11 04:20:11;;;;;;;;;;;;;;;10.25;100.00;100631.88;5140591;27;20217;-92
2023/01/11 04:22:37;;;;;;;;;;;;;;;10.24;100.00;100628.41;5139987;27;19915;-92
2023/01/11 04:25:07;;;;;;;;;;;;;;;10.22;100.00;100638.06;5158838;27;19922;-92
2023/01/11 04:27:36;;;;;;;;;;;;;;;10.21;100.00;100652.09;5158086;27;19915;-92
2023/01/11 04:30:04;;;;;;;;;;;;;;;10.21;100.00;100656.47;5157543;27;19919;-91
2023/01/11 04:32:34;;;;;;;;;;;;;;;10.19;100.00;100651.31;5158577;27;19919;-92
2023/01/11 04:35:06;;;;;;;;;;;;;;;10.17;100.00;100645.28;5152360;27;19930;-92
2023/01/11 04:37:37;;;;;;;;;;;;;;;10.14;100.00;100654.09;5136527;28;19912;-92
2023/01/11 04:40:07;;;;;;;;;;;;;;;10.13;100.00;100656.78;5136462;28;19927;-91
2023/01/11 04:42:37;;;;;;;;;;;;;;;10.10;100.00;100656.94;5136564;28;20128;-92
2023/01/11 04:45:06;;;;;;;;;;;;;;;10.09;100.00;100660.44;5138983;28;20102;-91
2023/01/11 04:47:45;;;;;;;;;;;;;;;10.07;100.00;100662.28;5136866;28;19983;-91
2023/01/11 04:50:28;;;;;;;;;;;;;;;10.04;100.00;100659.78;5137852;27;19952;-92
2023/01/11 04:52:56;;;;;;;;;;;;;;;10.00;100.00;100661.66;5139358;27;19920;-92
2023/01/11 04:55:29;;;;;;;;;;;;;;;9.98;100.00;100669.56;5141968;27;19915;-91
2023/01/11 04:57:56;;;;;;;;;;;;;;;9.96;100.00;100668.78;5139261;27;19915;-92
2023/01/11 05:00:24;;;;;;;;;;;;;;;9.92;100.00;100675.06;5142078;27;20079;-92
2023/01/11 05:02:52;;;;;;;;;;;;;;;9.88;100.00;100678.72;5139567;27;19990;-91
2023/01/11 05:05:19;;;;;;;;;;;;;;;9.87;100.00;100673.56;5123293;27;19912;-92
2023/01/11 05:07:50;;;;;;;;;;;;;;;9.86;100.00;100677.06;5140911;27;19916;-92
2023/01/11 05:10:19;;;;;;;;;;;;;;;9.82;100.00;100692.03;5141816;27;19915;-92
2023/01/11 05:12:45;;;;;;;;;;;;;;;9.77;100.00;100689.63;5139736;27;20018;-91
2023/01/11 05:15:11;;;;;;;;;;;;;;;9.75;100.00;100694.06;5123036;27;19923;-91
2023/01/11 05:17:37;;;;;;;;;;;;;;;9.75;100.00;100696.69;5122795;27;19980;-92
2023/01/11 05:20:03;;;;;;;;;;;;;;;9.71;100.00;100705.53;5139734;27;20185;-91
2023/01/11 05:22:30;;;;;;;;;;;;;;;9.68;100.00;100708.28;5123110;27;19911;-91
2023/01/11 05:24:57;;;;;;;;;;;;;;;9.64;100.00;100704.09;5139544;27;19960;-91
2023/01/11 05:27:24;;;;;;;;;;;;;;;9.63;100.00;100714.63;5139498;27;19924;-91
2023/01/11 05:29:51;;;;;;;;;;;;;;;9.60;100.00;100719.06;5140985;27;20212;-91
2023/01/11 05:32:19;;;;;;;;;;;;;;;9.56;100.00;100709.59;5139049;27;19990;-92
2023/01/11 05:34:47;;;;;;;;;;;;;;;9.55;100.00;100714.88;5139247;27;19908;-91
2023/01/11 05:37:14;;;;;;;;;;;;;;;9.53;100.00;100714.97;5140107;27;19911;-92
2023/01/11 05:39:40;;;;;;;;;;;;;;;9.51;100.00;100715.91;5139327;27;20129;-92
2023/01/11 05:42:09;;;;;;;;;;;;;;;9.49;100.00;100712.53;5140137;27;19920;-91
2023/01/11 05:47:19;;;;;;;;;;;;;;;9.43;100.00;100724.06;5139898;27;20221;-91
2023/01/11 05:49:46;;;;;;;;;;;;;;;9.41;100.00;100726.72;5138904;27;19915;-91
2023/01/11 05:52:12;;;;;;;;;;;;;;;9.41;100.00;100724.13;5139886;27;19919;-91
2023/01/11 05:54:41;;;;;;;;;;;;;;;9.39;100.00;100725.09;5121547;27;20227;-91
2023/01/11 05:57:10;;;;;;;;;;;;;;;9.37;100.00;100730.38;5139436;27;19919;-92
2023/01/11 05:59:55;;;;;;;;;;;;;;;9.36;100.00;100736.50;5122220;27;19946;-91
2023/01/11 06:02:22;;;;;;;;;;;;;;;9.35;100.00;100742.66;5139260;27;19919;-91
2023/01/11 06:04:48;;;;;;;;;;;;;;;9.33;100.00;100754.94;5137897;27;19919;-91
2023/01/11 06:07:15;;;;;;;;;;;;;;;9.32;100.00;100762.81;5139208;27;20146;-91
2023/01/11 06:09:41;;;;;;;;;;;;;;;9.31;100.00;100763.72;5138926;27;19990;-92
2023/01/11 06:12:11;;;;;;;;;;;;;;;9.29;100.00;100765.53;5139235;27;20238;-91
2023/01/11 06:14:37;;;;;;;;;;;;;;;9.27;100.00;100773.44;5139605;27;19922;-91
2023/01/11 06:17:03;;;;;;;;;;;;;;;9.25;100.00;100777.03;5121665;27;19946;-91
2023/01/11 06:19:30;;;;;;;;;;;;;;;9.23;100.00;100779.69;5122074;27;20095;-91
2023/01/11 06:21:56;;;;;;;;;;;;;;;9.23;100.00;100790.13;5136948;27;19922;-92
2023/01/11 06:24:23;;;;;;;;;;;;;;;9.22;100.00;100797.13;5159240;27;19922;-91
2023/01/11 06:26:53;;;;;;;;;;;;;;;9.22;100.00;100791.91;5159306;27;20159;-91
2023/01/11 06:29:22;;;;;;;;;;;;;;;9.20;100.00;100792.84;5160732;27;19907;-91
2023/01/11 06:31:47;;;;;;;;;;;;;;;9.19;100.00;100793.78;5137848;27;19979;-91
2023/01/11 06:34:13;;;;;;;;;;;;;;;9.17;100.00;100788.59;5145038;27;19911;-92
2023/01/11 06:36:39;;;;;;;;;;;;;;;9.15;100.00;100798.25;5139760;27;19929;-92
2023/01/11 06:46:02;;;;;;;;;;;;;;;;;;;;;
2023/01/11 06:51:31;;;;;;;;;;;;;;;9.05;100.00;100811.69;5137246;27;19917;-91
2023/01/11 06:54:21;;;;;;;;;;;;;;;;;;;;;
2023/01/11 07:00:02;;;;;;;;;;;;;;;8.97;100.00;100822.41;5161299;27;20237;-91
2023/01/11 07:02:39;;;;;;;;;;;;;;;8.95;100.00;100817.22;5155249;27;19945;-91
2023/01/11 07:05:37;;;;;;;;;;;;;;;;;;;;;
2023/01/11 07:08:08;;;;;;;;;;;;;;;8.93;100.00;100820.78;5151017;27;19945;-91
2023/01/11 07:13:35;;;;;;;;;;;;;;;8.87;100.00;100840.13;5138573;27;19915;-91
2023/01/11 07:16:12;;;;;;;;;;;;;;;8.88;100.00;100849.69;5142714;27;19938;-91
2023/01/11 07:18:38;;;;;;;;;;;;;;;8.87;100.00;100858.41;5123361;27;20118;-91
2023/01/11 07:21:07;;;;;;;;;;;;;;;8.86;100.00;100853.22;5122445;27;19959;-92
2023/01/11 07:23:38;;;;;;;;;;;;;;;8.85;100.00;100862.84;5118501;27;19942;-91
2023/01/11 07:26:07;;;;;;;;;;;;;;;8.84;100.00;100856.78;5135716;27;20187;-91
2023/01/11 07:28:38;;;;;;;;;;;;;;;8.82;100.00;100861.19;5109288;27;20277;-91
2023/01/11 07:31:49;;;;;;;;;;;;;;;;;;;;;
2023/01/11 07:34:48;;;;;;;;;;;;;;;8.79;100.00;100865.66;5127195;27;19935;-91
2023/01/11 07:38:44;;;;;;;;;;;;;;;;;;;;;
2023/01/11 07:43:10;;;;;;;;;;;;;;;8.74;100.00;100875.41;5112455;27;19923;-91
2023/01/11 07:43:47;;;;;;;;;;;;;;;8.74;100.00;100881.47;5142056;27;19919;-91
2023/01/11 07:46:13;;;;;;;;;;;;;;;8.72;100.00;100883.28;5140608;27;19922;-91
2023/01/11 07:48:38;;;;;;;;;;;;;;;8.70;100.00;100894.69;5123361;27;19926;-91
2023/01/11 07:51:04;;;;;;;;;;;;;;;8.69;100.00;100898.19;5159647;27;19915;-92
2023/01/11 07:53:30;;;;;;;;;;;;;;;8.64;100.00;100908.75;5123192;27;19915;-91
2023/01/11 07:55:59;;;;;;;;;;;;;;;8.63;100.00;100920.97;5107222;28;19911;-91
2023/01/11 07:58:27;;;;;;;;;;;;;;;8.63;100.00;100914.91;5123143;27;19923;-91
2023/01/11 08:00:57;;;;;;;;;;;;;;;8.60;100.00;100922.81;5140257;27;19923;-91
2023/01/11 08:04:13;;;;;;;;;;;;;;;8.60;100.00;100933.25;5158913;27;19960;-91
2023/01/11 08:06:48;;;;;;;;;;;;;;;8.59;100.00;100939.41;5158299;27;19919;-91
2023/01/11 08:09:19;;;;;;;;;;;;;;;8.58;100.00;100930.69;5122429;27;20247;-91
2023/01/11 08:14:43;;;;;;;;;;;;;;;8.55;100.00;100943.88;5142151;27;19960;-91
2023/01/11 08:17:15;;;;;;;;;;;;;;;8.52;100.00;100941.34;5122799;27;19929;-91
2023/01/11 08:19:45;;;;;;;;;;;;;;;8.51;100.00;100944.84;5157185;27;19919;-91
2023/01/11 08:22:18;;;;;;;;;;;;;;;8.51;100.00;100947.44;5123708;27;19930;-91
2023/01/11 08:24:47;;;;;;;;;;;;;;;8.48;100.00;100950.16;5122913;27;19911;-91
2023/01/11 08:27:16;;;;;;;;;;;;;;;8.48;100.00;100960.59;5143135;27;19985;-91
2023/01/11 08:29:44;;;;;;;;;;;;;;;8.47;100.00;100958.88;5142680;27;20207;-91
2023/01/11 08:32:11;;;;;;;;;;;;;;;8.47;100.00;100961.50;5142983;27;19958;-91
2023/01/11 08:34:38;;;;;;;;;;;;;;;8.43;100.00;100959.88;5142057;27;19943;-91
2023/01/11 08:37:04;;;;;;;;;;;;;;;8.40;100.00;100965.16;5124593;27;19941;-91
2023/01/11 08:39:30;;;;;;;;;;;;;;;8.39;100.00;100961.69;5124262;27;20214;-91
2023/01/11 08:42:01;;;;;;;;;;;;;;;8.39;100.00;100963.47;5142826;27;20163;-91
2023/01/11 08:44:30;;;;;;;;;;;;;;;8.36;100.00;100964.38;5143578;27;19989;-91
2023/01/11 08:46:57;;;;;;;;;;;;;;;8.35;100.00;100964.44;5162404;27;20293;-91
2023/01/11 08:49:26;;;;;;;;;;;;;;;8.33;100.00;100968.84;5143691;27;19946;-91
2023/01/11 08:51:53;;;;;;;;;;;;;;;8.33;100.00;100961.00;5143805;27;20211;-91
2023/01/11 08:54:25;;;;;;;;;;;;;;;8.31;100.00;100963.66;5142070;27;20206;-91
2023/01/11 08:56:50;;;;;;;;;;;;;;;8.31;100.00;100963.66;5143927;27;19919;-91
2023/01/11 08:59:18;;;;;;;;;;;;;;;8.30;100.00;100961.97;5144085;27;19922;-91
2023/01/11 09:01:44;;;;;;;;;;;;;;;8.29;100.00;100964.63;5143031;27;19956;-91
2023/01/11 09:04:14;;;;;;;;;;;;;;;8.30;100.00;100966.34;5142717;27;19915;-91
2023/01/11 09:06:46;;;;;;;;;;;;;;;8.30;100.00;100976.78;5161045;27;19907;-91
2023/01/11 09:09:11;;;;;;;;;;;;;;;8.30;100.00;100975.03;5125474;27;19911;-90
2023/01/11 09:11:56;;;;;;;;;;;;;;;8.31;100.00;100978.47;5125881;27;19952;-91
2023/01/11 09:14:23;;;;;;;;;;;;;;;8.30;100.00;100988.06;5129255;27;20426;-91
2023/01/11 09:16:49;;;;;;;;;;;;;;;8.31;100.00;100991.53;5143387;27;19915;-91
2023/01/11 09:19:14;;;;;;;;;;;;;;;8.32;100.00;100993.25;5125112;27;20009;-91
2023/01/11 09:21:44;;;;;;;;;;;;;;;8.31;100.00;100994.97;5161423;27;20195;-91
2023/01/11 09:24:10;;;;;;;;;;;;;;;8.31;100.00;100999.34;5126451;27;19989;-91
2023/01/11 09:26:37;;;;;;;;;;;;;;;8.31;100.00;100989.75;5125681;27;19918;-91
2023/01/11 09:29:03;;;;;;;;;;;;;;;8.32;100.00;101003.69;5126750;27;19980;-91
2023/01/11 09:31:29;;;;;;;;;;;;;;;8.32;100.00;100995.84;5143069;27;19911;-91
2023/01/11 09:33:58;;;;;;;;;;;;;;;8.31;100.00;100992.38;5139924;27;19930;-91
2023/01/11 09:36:29;;;;;;;;;;;;;;;8.32;100.00;101001.91;5160267;27;20198;-91
2023/01/11 09:39:00;;;;;;;;;;;;;;;8.33;100.00;101001.03;5125711;27;19919;-91
2023/01/11 09:41:26;;;;;;;;;;;;;;;8.33;100.00;100995.81;5126392;27;20118;-91
2023/01/11 09:44:14;;;;;;;;;;;;;;;8.34;100.00;101000.13;5142333;27;20663;-90
2023/01/11 09:46:50;;;;;;;;;;;;;;;8.36;100.00;100995.69;5159046;27;20379;-91
2023/01/11 09:55:30;;;;;;;;;;;;;;;8.38;100.00;101004.34;5149526;27;19922;-91
2023/01/11 09:58:10;;;;;;;;;;;;;;;8.39;100.00;101006.06;5157261;27;20114;-91
2023/01/11 10:04:24;;;;;;;;;;;;;;;8.43;100.00;101012.94;5157652;27;19915;-91
2023/01/11 10:07:42;;;;;;;;;;;;;;;;;;;;;
2023/01/11 10:10:07;;;;;;;;;;;;;;;8.45;100.00;101032.00;5155262;27;19922;-91
2023/01/11 10:12:40;;;;;;;;;;;;;;;8.48;100.00;101043.25;5159479;27;19964;-91
2023/01/11 10:15:31;;;;;;;;;;;;;;;;;;;;;
2023/01/11 10:21:42;;;;;;;;;;;;;;;;;;;;;
2023/01/11 10:24:30;;;;;;;;;;;;;;;8.50;98.90;101059.75;5123069;27;19942;-91
2023/01/11 10:33:57;;;;;;;;;;;;;;;8.52;99.58;101064.03;5042660;28;19925;-91
2023/01/11 10:46:40;;;;;;;;;;;;;;;8.56;100.00;101049.97;5110362;28;19924;-90
2023/01/11 10:49:11;;;;;;;;;;;;;;;8.58;99.17;101063.00;5103156;27;20198;-91
2023/01/11 10:51:43;;;;;;;;;;;;;;;8.58;99.10;101057.75;5151819;27;20014;-91
2023/01/11 10:54:23;;;;;;;;;;;;;;;8.58;98.75;101047.31;5129693;27;20245;-91
2023/01/11 10:57:10;;;;;;;;;;;;;;;8.60;99.19;101048.13;5124449;27;19961;-91
2023/01/11 10:59:49;;;;;;;;;;;;;;;8.60;99.23;101045.53;5140992;27;19918;-91
2023/01/11 11:02:17;;;;;;;;;;;;;;;8.62;98.94;101047.19;5141109;27;19923;-91
2023/01/11 11:05:03;;;;;;;;;;;;;;;8.63;98.62;101053.28;5158805;27;19970;-91
2023/01/11 11:07:33;;;;;;;;;;;;;;;8.63;97.94;101046.28;5140954;27;20249;-91
2023/01/11 11:10:11;;;;;;;;;;;;;;;8.65;97.95;101057.53;5140751;27;20136;-90
2023/01/11 11:12:47;;;;;;;;;;;;;;;8.65;95.65;101059.31;5158425;27;19926;-91
2023/01/11 11:15:25;;;;;;;;;;;;;;;8.67;95.57;101056.66;5159768;27;19919;-91
2023/01/11 11:17:54;;;;;;;;;;;;;;;8.68;96.17;101058.34;5159574;27;20209;-91
2023/01/11 11:20:24;;;;;;;;;;;;;;;8.68;96.69;101066.19;5123307;27;19929;-91
2023/01/11 11:22:56;;;;;;;;;;;;;;;8.69;95.77;101062.69;5158688;27;19923;-90
2023/01/11 11:25:45;;;;;;;;;;;;;;;8.69;95.51;101057.47;5159190;27;19948;-91
2023/01/11 11:28:13;;;;;;;;;;;;;;;8.70;96.54;101075.69;5157455;27;19960;-91
2023/01/11 11:30:44;;;;;;;;;;;;;;;8.70;95.45;101053.97;5156193;27;20575;-91
2023/01/11 11:33:29;;;;;;;;;;;;;;;8.71;94.70;101061.72;5157575;27;19919;-91
2023/01/11 11:36:03;;;;;;;;;;;;;;;8.72;93.55;101060.00;5139297;27;20207;-91
2023/01/11 11:38:29;;;;;;;;;;;;;;;8.73;92.94;101056.47;5139847;27;19934;-91
2023/01/11 11:40:58;;;;;;;;;;;;;;;8.73;92.34;101059.94;5158233;27;20192;-90
2023/01/11 11:43:29;;;;;;;;;;;;;;;8.74;91.72;101053.81;5159015;27;19919;-91
2023/01/11 11:46:24;;;;;;;;;;;;;;;8.75;91.73;101058.13;5141380;27;19998;-91
2023/01/11 11:49:10;;;;;;;;;;;;;;;8.76;90.35;101061.59;5140566;27;19907;-91
2023/01/11 11:51:37;;;;;;;;;;;;;;;8.75;88.34;101086.88;5139764;27;20026;-90
2023/01/11 11:54:18;;;;;;;;;;;;;;;8.76;89.15;101074.66;5159101;27;19960;-91
2023/01/11 11:56:46;;;;;;;;;;;;;;;8.74;89.35;101073.84;5158287;27;19953;-91
2023/01/11 11:59:14;;;;;;;;;;;;;;;8.71;88.91;101064.31;5140147;27;19915;-90
2023/01/11 12:01:45;;;;;;;;;;;;;;;8.69;88.94;101076.59;5162262;27;20110;-91
2023/01/11 12:04:14;;;;;;;;;;;;;;;8.68;88.76;101071.41;5144891;27;20021;-91
2023/01/11 12:06:43;;;;;;;;;;;;;;;8.64;87.56;101083.69;5163262;27;19951;-90
2023/01/11 12:09:32;;;;;;;;;;;;;;;8.65;87.74;101067.97;5163516;27;20250;-91
2023/01/11 12:11:59;;;;;;;;;;;;;;;8.63;88.73;101093.28;5163544;27;20210;-90
2023/01/11 12:14:26;;;;;;;;;;;;;;;8.63;88.56;101076.78;5127526;27;19929;-91
2023/01/11 12:16:56;;;;;;;;;;;;;;;8.63;90.44;101077.63;5163222;27;20279;-91
2023/01/11 12:19:41;;;;;;;;;;;;;;;8.64;88.83;101079.34;5163332;27;20143;-91
2023/01/11 12:22:13;;;;;;;;;;;;;;;8.66;89.26;101074.09;5144748;27;20169;-91
2023/01/11 12:24:38;;;;;;;;;;;;;;;8.67;89.46;101081.00;5144015;27;19986;-90
2023/01/11 12:27:15;;;;;;;;;;;;;;;8.68;89.87;101085.31;5126913;27;20206;-91
2023/01/11 12:29:53;;;;;;;;;;;;;;;8.68;89.35;101087.06;5144216;27;20190;-91
2023/01/11 12:32:30;;;;;;;;;;;;;;;8.69;89.25;101092.25;5144638;27;19915;-90
2023/01/11 12:35:17;;;;;;;;;;;;;;;8.71;89.33;101074.78;5162859;27;19942;-91
2023/01/11 12:37:56;;;;;;;;;;;;;;;8.73;90.16;101065.16;5143585;27;19997;-91
2023/01/11 12:40:31;;;;;;;;;;;;;;;8.76;89.32;101074.66;5144419;27;20133;-91
2023/01/11 12:42:57;;;;;;;;;;;;;;;8.77;90.12;101076.38;5163015;27;20146;-91
2023/01/11 12:45:36;;;;;;;;;;;;;;;8.75;89.62;101065.09;5143885;27;19934;-91
2023/01/11 12:48:05;;;;;;;;;;;;;;;8.76;90.11;101064.22;5162629;27;20013;-90
2023/01/11 12:50:54;;;;;;;;;;;;;;;8.76;90.20;101067.66;5162562;27;19913;-91
2023/01/11 12:53:25;;;;;;;;;;;;;;;8.78;89.55;101071.09;5143765;27;20226;-90
2023/01/11 12:56:15;;;;;;;;;;;;;;;8.80;88.89;101081.50;5144179;27;19959;-91
2023/01/11 12:58:56;;;;;;;;;;;;;;;8.81;89.41;101078.00;5162395;27;19937;-90
2023/01/11 13:01:21;;;;;;;;;;;;;;;8.80;88.62;101064.09;5143799;27;19915;-91
2023/01/11 13:04:09;;;;;;;;;;;;;;;8.80;88.44;101073.66;5161951;27;19939;-91
2023/01/11 13:06:52;;;;;;;;;;;;;;;8.81;87.99;101080.59;5162176;27;19914;-90
2023/01/11 13:09:17;;;;;;;;;;;;;;;8.81;88.49;101081.44;5143416;27;20148;-91
2023/01/11 13:12:02;;;;;;;;;;;;;;;8.81;88.50;101078.84;5142419;27;19939;-90
2023/01/11 13:14:37;;;;;;;;;;;;;;;8.81;88.21;101059.72;5161452;27;19907;-91
2023/01/11 13:17:20;;;;;;;;;;;;;;;8.81;87.60;101075.38;5143694;27;19942;-91
2023/01/11 13:20:02;;;;;;;;;;;;;;;8.83;87.29;101068.34;5143240;27;19918;-91
2023/01/11 13:22:29;;;;;;;;;;;;;;;8.82;87.51;101049.22;5142908;27;20238;-91
2023/01/11 13:24:57;;;;;;;;;;;;;;;8.80;86.28;101063.22;5125106;27;19919;-91
2023/01/11 13:27:23;;;;;;;;;;;;;;;8.79;85.63;101049.31;5142171;27;19907;-91
2023/01/11 13:29:55;;;;;;;;;;;;;;;8.80;85.53;101045.81;5142710;27;20144;-91
2023/01/11 13:32:26;;;;;;;;;;;;;;;8.80;85.78;101050.16;5143142;27;20280;-91
2023/01/11 13:35:25;;;;;;;;;;;;;;;8.78;86.09;101042.34;5161187;27;19926;-90
2023/01/11 13:37:55;;;;;;;;;;;;;;;8.78;85.67;101038.91;5098183;27;19914;-91
2023/01/11 13:40:28;;;;;;;;;;;;;;;8.78;86.31;101036.28;5161887;27;19914;-91
2023/01/11 13:42:55;;;;;;;;;;;;;;;8.77;86.66;101032.84;5143021;27;19922;-90
2023/01/11 13:45:23;;;;;;;;;;;;;;;8.77;85.65;101017.16;5143128;27;19992;-91
2023/01/11 13:47:55;;;;;;;;;;;;;;;8.77;86.27;101016.31;5142503;27;19978;-91
2023/01/11 13:50:28;;;;;;;;;;;;;;;8.78;86.79;101012.78;5143094;27;20155;-91
2023/01/11 13:52:58;;;;;;;;;;;;;;;8.76;87.46;101023.28;5142693;27;19946;-91
2023/01/11 13:55:28;;;;;;;;;;;;;;;8.78;86.88;101031.06;5159490;27;20140;-91
2023/01/11 13:58:04;;;;;;;;;;;;;;;8.79;87.80;101011.91;5142576;27;19907;-91
2023/01/11 14:00:49;;;;;;;;;;;;;;;8.80;89.98;101016.19;5142883;27;19915;-91
2023/01/11 14:03:24;;;;;;;;;;;;;;;8.78;90.19;101012.78;5160712;27;20051;-91
2023/01/11 14:06:18;;;;;;;;;;;;;;;8.76;90.92;101023.28;5161144;27;20244;-91
2023/01/11 14:09:02;;;;;;;;;;;;;;;8.76;90.62;101007.59;5104370;27;20004;-90
2023/01/11 14:11:31;;;;;;;;;;;;;;;8.76;91.49;101023.28;5161467;27;19907;-91
2023/01/11 14:14:12;;;;;;;;;;;;;;;8.75;90.93;101015.47;5142228;27;19926;-91
2023/01/11 14:16:48;;;;;;;;;;;;;;;8.74;91.44;101016.41;5160697;27;20245;-91
2023/01/11 14:19:20;;;;;;;;;;;;;;;8.73;91.05;101027.72;5142553;27;19997;-91
2023/01/11 14:21:58;;;;;;;;;;;;;;;8.72;91.58;101020.81;5142122;27;19915;-91